Time;durP1;ratioP1;P1;durP2;ratioP2;P2;SDS_P1;SDS_P2;PMS_P1;PMS_P2;Temp;Humidity;BMP_temperature;BMP_pressure;BME280_temperature;BME280_humidity;BME280_pressure;Samples;Min_cycle;Max_cycle;Signal;HPM_P1;HPM_P2
2021/03/26 00:01:39;;;;;;;92.22;46.28;;;;;;;;;;5003137;28;20103;-49
2021/03/26 00:04:06;;;;;;;79.15;43.13;;;;;;;;;;5003160;28;20026;-49
2021/03/26 00:06:36;;;;;;;84.78;45.58;;;;;;;;;;5002751;28;20067;-50
2021/03/26 00:09:06;;;;;;;79.80;44.38;;;;;;;;;;5002062;28;20017;-50
2021/03/26 00:11:32;;;;;;;76.30;41.80;;;;;;;;;;5010945;28;20053;-53
2021/03/26 00:13:59;;;;;;;79.15;41.90;;;;;;;;;;5014030;28;20022;-54
2021/03/26 00:16:25;;;;;;;77.78;41.65;;;;;;;;;;5014176;28;20410;-53
2021/03/26 00:18:51;;;;;;;76.93;40.03;;;;;;;;;;5014148;28;20034;-49
2021/03/26 00:21:18;;;;;;;78.45;40.60;;;;;;;;;;5014276;28;20057;-52
2021/03/26 00:23:44;;;;;;;77.03;39.40;;;;;;;;;;5014149;28;20068;-50
2021/03/26 00:28:43;;;;;;;92.95;47.85;;;;;;;;;;5011613;28;20125;-54
2021/03/26 00:31:09;;;;;;;72.35;39.90;;;;;;;;;;5013310;28;20037;-54
2021/03/26 00:33:35;;;;;;;83.85;44.45;;;;;;;;;;5013372;28;20018;-55
2021/03/26 00:36:02;;;;;;;84.03;42.10;;;;;;;;;;5013120;28;20026;-56
2021/03/26 00:38:28;;;;;;;83.68;44.63;;;;;;;;;;5012985;28;20041;-55
2021/03/26 00:40:55;;;;;;;67.80;36.33;;;;;;;;;;5013037;28;20061;-55
2021/03/26 00:43:21;;;;;;;69.57;38.58;;;;;;;;;;5012946;28;20026;-54
2021/03/26 00:45:48;;;;;;;70.50;36.33;;;;;;;;;;5012963;28;20069;-55
2021/03/26 00:48:14;;;;;;;61.85;32.97;;;;;;;;;;5012997;28;20029;-55
2021/03/26 00:50:42;;;;;;;55.63;29.90;;;;;;;;;;5012622;28;20029;-56
2021/03/26 00:53:10;;;;;;;59.30;31.90;;;;;;;;;;5012909;28;20077;-54
2021/03/26 00:55:36;;;;;;;58.13;31.75;;;;;;;;;;5012851;28;20037;-56
2021/03/26 00:58:06;;;;;;;64.90;34.92;;;;;;;;;;5012389;28;20034;-55
2021/03/26 01:00:33;;;;;;;63.10;32.70;;;;;;;;;;5012860;28;20022;-55
2021/03/26 01:02:59;;;;;;;75.45;39.90;;;;;;;;;;5012668;28;20485;-55
2021/03/26 01:05:29;;;;;;;46.65;25.52;;;;;;;;;;5012834;28;20018;-55
2021/03/26 01:07:58;;;;;;;70.85;36.20;;;;;;;;;;5012579;28;20033;-56
2021/03/26 01:10:26;;;;;;;43.95;24.08;;;;;;;;;;5012620;28;20101;-55
2021/03/26 01:12:54;;;;;;;45.13;24.88;;;;;;;;;;5013713;28;20431;-55
2021/03/26 01:15:21;;;;;;;58.83;30.10;;;;;;;;;;5012807;28;20104;-54
2021/03/26 01:17:49;;;;;;;49.47;25.92;;;;;;;;;;5012637;28;20026;-56
2021/03/26 01:20:17;;;;;;;53.10;28.52;;;;;;;;;;5012502;28;20034;-54
2021/03/26 01:22:44;;;;;;;43.25;26.23;;;;;;;;;;5012403;28;20049;-54
2021/03/26 01:25:11;;;;;;;62.90;33.05;;;;;;;;;;5012507;28;20493;-55
2021/03/26 01:27:37;;;;;;;68.28;33.67;;;;;;;;;;4988058;28;714301;-55
2021/03/26 01:30:07;;;;;;;46.13;26.45;;;;;;;;;;5013527;28;20084;-54
2021/03/26 01:32:33;;;;;;;52.03;27.95;;;;;;;;;;5013272;28;20026;-54
2021/03/26 01:35:00;;;;;;;58.70;29.65;;;;;;;;;;5013404;28;20381;-55
2021/03/26 01:37:26;;;;;;;66.35;33.70;;;;;;;;;;5013328;28;20088;-55
2021/03/26 01:39:52;;;;;;;60.78;31.33;;;;;;;;;;5013333;28;20058;-56
2021/03/26 01:42:30;;;;;;;64.30;35.63;;;;;;;;;;5017369;28;20050;-54
2021/03/26 01:44:59;;;;;;;61.72;31.75;;;;;;;;;;5017085;28;20080;-54
2021/03/26 01:47:26;;;;;;;70.05;35.67;;;;;;;;;;5017085;28;20026;-53
2021/03/26 01:49:52;;;;;;;62.03;33.50;;;;;;;;;;5016891;28;20068;-53
2021/03/26 01:52:18;;;;;;;55.00;30.30;;;;;;;;;;5016838;28;20026;-54
2021/03/26 01:54:44;;;;;;;54.17;30.33;;;;;;;;;;5016722;28;20537;-54
2021/03/26 01:57:11;;;;;;;59.35;31.48;;;;;;;;;;5016668;28;20029;-53
2021/03/26 01:59:37;;;;;;;58.08;30.88;;;;;;;;;;5016824;28;20504;-53
2021/03/26 02:02:11;;;;;;;58.58;31.35;;;;;;;;;;5016756;28;20030;-53
2021/03/26 02:04:38;;;;;;;57.67;30.55;;;;;;;;;;5016919;28;20037;-53
2021/03/26 02:07:07;;;;;;;55.78;30.30;;;;;;;;;;5016415;28;20161;-53
2021/03/26 02:09:42;;;;;;;55.63;31.30;;;;;;;;;;5016606;28;20097;-53
2021/03/26 02:12:16;;;;;;;55.05;31.60;;;;;;;;;;5016790;28;20037;-52
2021/03/26 02:14:44;;;;;;;56.40;31.55;;;;;;;;;;5016447;28;20088;-53
2021/03/26 02:17:14;;;;;;;57.67;32.88;;;;;;;;;;5016687;28;20053;-54
2021/03/26 02:19:46;;;;;;;58.95;32.33;;;;;;;;;;5016356;28;20489;-55
2021/03/26 02:22:14;;;;;;;63.20;35.10;;;;;;;;;;5016852;28;20112;-55
2021/03/26 02:24:41;;;;;;;60.30;32.13;;;;;;;;;;5019573;28;20042;-55
2021/03/26 02:27:11;;;;;;;60.35;33.13;;;;;;;;;;5018625;28;20041;-54
2021/03/26 02:29:38;;;;;;;63.50;32.33;;;;;;;;;;5017643;28;20401;-54
2021/03/26 02:32:07;;;;;;;62.20;35.20;;;;;;;;;;5016465;28;20458;-55
2021/03/26 02:34:34;;;;;;;60.33;31.55;;;;;;;;;;5016667;28;20062;-55
2021/03/26 02:37:05;;;;;;;60.40;31.80;;;;;;;;;;5016746;28;20022;-55
2021/03/26 02:39:47;;;;;;;58.10;33.00;;;;;;;;;;5016078;28;20475;-55
2021/03/26 02:42:24;;;;;;;58.08;33.67;;;;;;;;;;5016128;28;20025;-55
2021/03/26 02:44:56;;;;;;;61.05;32.80;;;;;;;;;;5015892;28;20076;-55
2021/03/26 02:47:45;;;;;;;65.47;35.35;;;;;;;;;;5015910;28;20046;-55
2021/03/26 02:50:14;;;;;;;61.75;35.50;;;;;;;;;;5012915;28;20034;-56
2021/03/26 02:52:51;;;;;;;73.28;36.85;;;;;;;;;;5015522;28;20112;-56
2021/03/26 02:55:25;;;;;;;63.35;33.17;;;;;;;;;;5015754;28;20080;-55
2021/03/26 02:57:54;;;;;;;69.80;37.42;;;;;;;;;;5015438;28;20108;-55
2021/03/26 03:00:23;;;;;;;61.72;34.75;;;;;;;;;;5015872;28;20045;-55
2021/03/26 03:02:50;;;;;;;66.95;35.65;;;;;;;;;;5015719;28;20374;-55
2021/03/26 03:05:28;;;;;;;62.95;36.72;;;;;;;;;;5015594;28;20109;-54
2021/03/26 03:07:58;;;;;;;62.28;34.88;;;;;;;;;;5015385;28;20065;-54
2021/03/26 03:10:37;;;;;;;61.65;34.58;;;;;;;;;;5015459;28;20026;-56
2021/03/26 03:13:09;;;;;;;65.07;34.20;;;;;;;;;;5015495;28;20080;-55
2021/03/26 03:15:40;;;;;;;66.82;37.67;;;;;;;;;;5015335;28;20022;-55
2021/03/26 03:18:17;;;;;;;65.53;36.13;;;;;;;;;;5015341;28;20482;-55
2021/03/26 03:21:06;;;;;;;78.25;40.05;;;;;;;;;;5015438;28;20029;-55
2021/03/26 03:23:32;;;;;;;73.32;40.20;;;;;;;;;;5014871;28;20045;-55
2021/03/26 03:26:01;;;;;;;80.82;43.80;;;;;;;;;;5015156;28;20032;-54
2021/03/26 03:28:36;;;;;;;65.53;36.80;;;;;;;;;;5015157;28;20092;-55
2021/03/26 03:31:05;;;;;;;65.93;38.30;;;;;;;;;;5015124;28;20362;-55
2021/03/26 03:33:48;;;;;;;69.32;37.50;;;;;;;;;;5015028;28;20087;-55
2021/03/26 03:36:16;;;;;;;73.70;38.08;;;;;;;;;;5015097;28;20101;-55
2021/03/26 03:38:45;;;;;;;72.38;39.38;;;;;;;;;;5014775;28;20029;-55
2021/03/26 03:41:17;;;;;;;76.82;40.90;;;;;;;;;;5014887;28;20478;-55
2021/03/26 03:44:19;;;;;;;72.28;40.33;;;;;;;;;;5014733;28;20021;-54
2021/03/26 03:46:48;;;;;;;72.80;36.90;;;;;;;;;;4993173;28;20062;-54
2021/03/26 03:49:23;;;;;;;64.97;35.92;;;;;;;;;;4992982;28;20039;-54
2021/03/26 03:51:51;;;;;;;65.40;37.35;;;;;;;;;;4992900;28;20048;-54
2021/03/26 03:54:22;;;;;;;69.05;37.58;;;;;;;;;;4992788;28;20526;-55
2021/03/26 03:56:55;;;;;;;71.00;38.75;;;;;;;;;;4992742;28;20448;-55
2021/03/26 03:59:29;;;;;;;67.03;37.38;;;;;;;;;;4992782;28;20092;-56
2021/03/26 04:02:00;;;;;;;63.53;36.60;;;;;;;;;;4992948;28;20034;-53
2021/03/26 04:04:55;;;;;;;62.55;35.08;;;;;;;;;;4992710;28;20158;-54
2021/03/26 04:07:41;;;;;;;65.20;34.58;;;;;;;;;;4990862;28;20045;-54
2021/03/26 04:10:10;;;;;;;57.80;32.38;;;;;;;;;;4992703;28;20073;-57
2021/03/26 04:12:38;;;;;;;57.97;32.05;;;;;;;;;;4976362;28;20026;-55
2021/03/26 04:15:13;;;;;;;68.45;31.38;;;;;;;;;;4992858;28;20034;-54
2021/03/26 04:17:44;;;;;;;61.15;32.92;;;;;;;;;;4992980;28;20109;-54
2021/03/26 04:20:16;;;;;;;65.78;32.72;;;;;;;;;;4997240;28;20046;-55
2021/03/26 04:22:42;;;;;;;;;;;;;;;;;;5014470;28;20566;-53
2021/03/26 04:25:16;;;;;;;65.15;34.13;;;;;;;;;;5014023;28;19948;-54
2021/03/26 04:27:44;;;;;;;66.15;35.17;;;;;;;;;;5013921;28;20053;-53
2021/03/26 04:30:15;;;;;;;64.43;35.38;;;;;;;;;;5014270;28;20030;-52
2021/03/26 04:32:41;;;;;;;73.35;37.25;;;;;;;;;;5014259;28;20022;-53
2021/03/26 04:35:08;;;;;;;74.90;41.40;;;;;;;;;;5013861;28;20022;-53
2021/03/26 04:37:40;;;;;;;78.10;40.88;;;;;;;;;;5013988;28;20109;-52
2021/03/26 04:40:13;;;;;;;70.15;39.03;;;;;;;;;;5029013;28;20468;-53
2021/03/26 04:42:48;;;;;;;80.07;41.97;;;;;;;;;;5013770;28;20061;-53
2021/03/26 04:45:29;;;;;;;82.22;42.13;;;;;;;;;;5013911;28;20022;-52
2021/03/26 04:47:55;;;;;;;94.78;43.38;;;;;;;;;;5013816;28;20026;-54
2021/03/26 04:50:26;;;;;;;73.70;39.25;;;;;;;;;;5013889;28;20021;-54
2021/03/26 04:52:57;;;;;;;86.35;38.70;;;;;;;;;;5013678;28;20362;-54
2021/03/26 04:55:28;;;;;;;72.43;38.00;;;;;;;;;;5013648;28;20485;-54
2021/03/26 04:58:13;;;;;;;91.97;42.60;;;;;;;;;;5013515;28;20038;-54
2021/03/26 05:00:50;;;;;;;82.25;40.50;;;;;;;;;;5013781;28;20086;-54
2021/03/26 05:03:16;;;;;;;82.00;40.85;;;;;;;;;;5013704;28;20034;-54
2021/03/26 05:05:45;;;;;;;74.32;39.38;;;;;;;;;;5013594;28;20075;-54
2021/03/26 05:08:11;;;;;;;74.70;39.50;;;;;;;;;;5013665;28;20037;-54
2021/03/26 05:10:38;;;;;;;69.82;39.30;;;;;;;;;;5013740;28;20453;-53
2021/03/26 05:13:09;;;;;;;82.18;41.35;;;;;;;;;;5013556;28;20057;-54
2021/03/26 05:15:38;;;;;;;64.30;35.47;;;;;;;;;;5015066;28;20477;-54
2021/03/26 05:18:09;;;;;;;82.57;42.55;;;;;;;;;;5017314;28;20029;-54
2021/03/26 05:20:38;;;;;;;95.63;47.90;;;;;;;;;;5017586;28;20036;-53
2021/03/26 05:23:24;;;;;;;70.90;37.42;;;;;;;;;;5017456;28;20022;-55
2021/03/26 05:25:51;;;;;;;82.25;39.42;;;;;;;;;;5017377;28;20068;-55
2021/03/26 05:28:19;;;;;;;85.57;46.17;;;;;;;;;;5017189;28;20049;-56
2021/03/26 05:30:46;;;;;;;80.90;42.38;;;;;;;;;;5017202;28;20037;-55
2021/03/26 05:33:15;;;;;;;93.72;48.55;;;;;;;;;;5017154;28;20072;-55
2021/03/26 05:35:47;;;;;;;83.82;42.75;;;;;;;;;;5017124;28;20109;-55
2021/03/26 05:38:15;;;;;;;81.25;40.63;;;;;;;;;;5016937;28;20030;-55
2021/03/26 05:40:47;;;;;;;104.65;55.88;;;;;;;;;;5017027;28;20030;-53
2021/03/26 05:43:32;;;;;;;74.53;39.35;;;;;;;;;;5017165;28;20026;-53
2021/03/26 05:46:16;;;;;;;75.50;38.97;;;;;;;;;;5017102;28;20030;-53
2021/03/26 05:49:03;;;;;;;66.70;37.20;;;;;;;;;;5016988;28;20026;-54
2021/03/26 05:51:31;;;;;;;107.43;54.25;;;;;;;;;;4995209;28;20045;-53
2021/03/26 05:54:00;;;;;;;67.85;34.63;;;;;;;;;;4994952;28;20488;-54
2021/03/26 05:56:40;;;;;;;74.15;39.13;;;;;;;;;;4995068;28;20050;-54
2021/03/26 05:59:25;;;;;;;83.57;47.90;;;;;;;;;;4995208;28;20185;-54
2021/03/26 06:01:53;;;;;;;74.35;45.03;;;;;;;;;;4994989;28;20026;-55
2021/03/26 06:04:21;;;;;;;80.63;45.38;;;;;;;;;;4995012;28;20073;-58
2021/03/26 06:06:48;;;;;;;84.03;47.05;;;;;;;;;;4994952;28;20522;-55
2021/03/26 06:09:32;;;;;;;59.15;36.97;;;;;;;;;;4978592;28;20500;-58
2021/03/26 06:12:15;;;;;;;63.55;38.92;;;;;;;;;;4995047;28;20069;-56
2021/03/26 06:14:53;;;;;;;77.28;44.42;;;;;;;;;;4994658;28;20055;-58
2021/03/26 06:17:38;;;;;;;101.10;57.80;;;;;;;;;;4995025;28;20075;-56
2021/03/26 06:20:23;;;;;;;84.55;51.10;;;;;;;;;;4994311;28;20453;-57
2021/03/26 06:23:07;;;;;;;84.32;46.63;;;;;;;;;;4994443;28;20126;-58
2021/03/26 06:25:36;;;;;;;101.70;56.40;;;;;;;;;;4994519;28;20030;-58
2021/03/26 06:28:20;;;;;;;92.80;53.30;;;;;;;;;;4999697;28;20050;-58
2021/03/26 06:31:05;;;;;;;138.63;77.10;;;;;;;;;;5016642;28;20092;-59
2021/03/26 06:34:00;;;;;;;56.35;36.05;;;;;;;;;;5016098;28;20026;-52
2021/03/26 06:36:33;;;;;;;78.45;43.67;;;;;;;;;;4994472;28;20061;-57
2021/03/26 06:39:12;;;;;;;99.10;56.95;;;;;;;;;;4994178;28;20045;-55
2021/03/26 06:41:56;;;;;;;106.47;61.50;;;743.30;409.60;;;;;;4994244;28;20046;-52
2021/03/26 06:44:28;;;;;;;87.15;51.33;;;;;;;;;;4994159;28;20038;-53
2021/03/26 06:47:29;;;;;;;121.88;75.45;;;691.90;409.60;;;;;;4994271;28;20080;-58
2021/03/26 06:49:57;;;;;;;92.20;50.33;;;742.70;435.20;;;;;;4981613;28;20035;-63
2021/03/26 06:52:26;;;;;;;77.43;48.25;;;742.60;409.60;;;;;;4995200;28;20038;-59
2021/03/26 06:54:58;;;;;;;44.28;30.65;;;;;;;;;;4994917;28;20027;-59
2021/03/26 06:57:32;;;;;;;53.65;33.25;;;615.30;486.40;;;;;;4995199;28;20098;-60
2021/03/26 07:00:17;;;;;;;53.08;33.10;;;;;;;;;;4994569;28;20053;-60
2021/03/26 07:02:48;;;;;;;33.85;24.05;;;;;;;;;;4993773;28;20034;-59
2021/03/26 07:05:14;;;;;;;30.15;21.23;;;666.50;460.80;;;;;;4993981;28;20138;-59
2021/03/26 07:07:58;;;;;;;32.03;25.42;;;;;;;;;;4993829;28;20038;-59
2021/03/26 07:10:35;;;;;;;43.78;30.70;;;;;;;;;;4993734;28;20030;-58
2021/03/26 07:13:17;;;;;;;35.85;28.95;;;;;;;;;;5006227;28;20037;-58
2021/03/26 07:15:46;;;;;;;27.75;25.25;;;;;;;;;;5015270;28;20037;-59
2021/03/26 07:18:15;;;;;;;29.33;26.38;;;;;;;;;;5015040;28;20037;-59
2021/03/26 07:21:00;;;;;;;35.10;31.48;;;;;;;;;;5015376;28;20103;-59
2021/03/26 07:23:38;;;;;;;32.10;28.67;;;;;;;;;;5014924;28;20022;-59
2021/03/26 07:26:24;;;;;;;34.13;31.13;;;;;;;;;;5015369;28;20109;-59
2021/03/26 07:28:57;;;;;;;28.60;25.50;;;;;;;;;;5014923;28;20041;-59
2021/03/26 07:31:26;;;;;;;27.77;17.65;;;;;;;;;;5014815;28;20018;-59
2021/03/26 07:34:02;;;;;;;28.73;18.52;;;;;;;;;;5014995;28;20497;-58
2021/03/26 07:36:40;;;;;;;40.35;24.17;;;;;;;;;;5014964;28;20034;-60
2021/03/26 07:39:12;;;;;;;29.55;19.92;;;;;;;;;;5014026;28;20034;-59
2021/03/26 07:41:43;;;;;;;26.65;17.05;;;;;;;;;;5015011;28;20119;-59
2021/03/26 07:44:23;;;;;;;34.00;19.83;;;;;;;;;;5014902;28;20466;-59
2021/03/26 07:47:09;;;;;;;29.35;18.33;;;;;;;;;;5014793;28;20161;-57
2021/03/26 07:49:47;;;;;;;20.50;15.05;;;;;;;;;;5014510;28;20046;-58
2021/03/26 07:52:14;;;;;;;23.40;15.48;;;;;;;;;;5014649;28;20145;-58
2021/03/26 07:54:43;;;;;;;18.73;13.48;;;;;;;;;;5014647;28;20033;-57
2021/03/26 07:57:21;;;;;;;19.92;14.45;;;;;;;;;;5014356;28;20022;-59
2021/03/26 08:00:02;;;;;;;17.30;12.00;;;;;;;;;;5014342;28;20453;-58
2021/03/26 08:02:34;;;;;;;28.80;15.68;;;;;;;;;;5014401;28;20033;-58
2021/03/26 08:05:00;;;;;;;25.67;14.55;;;;;;;;;;5014600;28;20025;-58
2021/03/26 08:07:38;;;;;;;20.42;12.60;;;;;;;;;;5014441;28;20030;-58
2021/03/26 08:10:23;;;;;;;17.98;11.75;;;;;;;;;;5014206;28;20112;-54
2021/03/26 08:12:56;;;;;;;18.60;11.13;;;;;;;;;;5014178;28;20030;-58
2021/03/26 08:15:40;;;;;;;18.95;11.68;;;;;;;;;;5014357;28;20509;-57
2021/03/26 08:18:24;;;;;;;21.65;12.75;;;;;;;;;;5014106;28;20021;-56
2021/03/26 08:20:56;;;;;;;17.85;11.20;;;;;;;;;;5014045;28;20040;-59
2021/03/26 08:23:32;;;;;;;24.55;13.30;;;;;;;;;;5014069;28;20473;-58
2021/03/26 08:26:13;;;;;;;28.60;14.27;;;;;;;;;;5014024;28;20037;-59
2021/03/26 08:28:46;;;;;;;22.83;12.60;;;;;;;;;;5029112;28;20077;-58
2021/03/26 08:31:24;;;;;;;21.15;13.00;;;;;;;;;;5013798;28;20053;-59
2021/03/26 08:33:59;;;;;;;38.17;17.10;;;;;;;;;;5013982;28;20084;-58
2021/03/26 08:36:35;;;;;;;23.92;13.27;;;;;;;;;;5014053;28;20466;-58
2021/03/26 08:39:22;;;;;;;20.27;12.82;;;;;;;;;;5013851;28;20034;-58
2021/03/26 08:41:53;;;;;;;24.67;13.15;;;;;;;;;;5013767;28;20466;-58
2021/03/26 08:44:22;;;;;;;22.98;12.18;;;;;;;;;;5013815;28;20026;-58
2021/03/26 08:46:49;;;;;;;20.45;12.90;;;;;;;;;;5014089;28;20025;-58
2021/03/26 08:49:24;;;;;;;21.00;12.13;;;;;;;;;;5013881;28;20053;-58
2021/03/26 08:52:05;;;;;;;20.50;12.45;;;;;;;;;;5013636;28;20033;-56
2021/03/26 08:54:50;;;;;;;26.00;12.88;;;;;;;;;;5013516;28;20065;-59
2021/03/26 08:57:31;;;;;;;25.25;12.23;;;;;;;;;;5013800;28;20473;-59
2021/03/26 09:00:16;;;;;;;27.30;13.63;;;;;;;;;;5013705;28;20046;-58
2021/03/26 09:03:00;;;;;;;20.50;12.30;;;;;;;;;;5013654;28;20030;-57
2021/03/26 09:05:45;;;;;;;23.52;13.88;;;;;;;;;;5013847;28;20022;-59
2021/03/26 09:08:21;;;;;;;21.13;13.13;;;;;;;;;;5013641;28;20026;-59
2021/03/26 09:11:01;;;;;;;21.52;13.23;;;;;;;;;;5013517;28;20029;-58
2021/03/26 09:13:34;;;;;;;17.88;12.50;;;;;;;;;;5013477;28;20465;-58
2021/03/26 09:16:03;;;;;;;20.73;12.38;;;;;;;;;;5013380;28;20028;-58
2021/03/26 09:18:52;;;;;;;16.55;11.95;;;;;;;;;;5013510;28;20088;-59
2021/03/26 09:21:28;;;;;;;21.02;12.88;;;;;;;;;;5013520;28;20026;-60
2021/03/26 09:24:17;;;;;;;23.02;13.50;;;;;;;;;;5013329;28;20030;-59
2021/03/26 09:26:49;;;;;;;23.25;13.80;;;;;;;;;;4991621;28;20041;-58
2021/03/26 09:29:35;;;;;;;26.00;16.15;;;;;;;;;;4991605;28;20446;-60
2021/03/26 09:32:16;;;;;;;40.80;22.70;;;;;;;;;;4991711;28;20121;-60
2021/03/26 09:34:46;;;;;;;25.98;15.90;;;;;;;;;;4991586;28;20034;-57
2021/03/26 09:37:41;;;;;;;40.50;21.08;;;;;;;;;;4991470;28;20037;-58
2021/03/26 09:40:32;;;;;;;43.20;23.90;;;;;;;;;;4952743;29;20516;-59
2021/03/26 09:43:04;;;;;;;36.55;20.27;;;;;;;;;;4914820;29;20092;-57
2021/03/26 09:45:33;;;;;;;32.70;20.35;;;;;;;;;;4914642;29;20412;-59
2021/03/26 09:48:02;;;;;;;26.63;16.95;;;;;;;;;;4914709;29;20046;-58
2021/03/26 09:50:28;;;;;;;27.65;18.38;;;;;;;;;;4914465;29;20055;-58
2021/03/26 09:52:55;;;;;;;38.72;24.08;;;;;;;;;;4914738;29;20047;-56
2021/03/26 09:55:27;;;;;;;38.50;24.05;;;;;;;;;;4914658;29;20024;-57
2021/03/26 09:57:53;;;;;;;;;;;;;;;;;;4915108;29;20052;-55
2021/03/26 10:00:25;;;;;;;38.80;23.33;;;;;;;;;;4914578;29;19919;-59
2021/03/26 10:03:03;;;;;;;31.92;19.55;;;;;;;;;;4917497;29;20127;-58
2021/03/26 10:05:39;;;;;;;41.22;22.42;;;;;;;;;;4918037;29;20500;-59
2021/03/26 10:08:08;;;;;;;52.90;32.20;;;;;;;;;;4917739;29;20040;-59
2021/03/26 10:13:01;;;;;;;42.92;25.63;;;;;;;;;;4917932;29;20100;-58
2021/03/26 10:15:32;;;;;;;28.30;18.00;;;;;;;;;;4920755;28;20481;-60
2021/03/26 10:18:35;;;;;;;26.15;16.80;;;;;;;;;;4955979;28;20114;-59
2021/03/26 10:21:01;;;;;;;24.77;16.27;;;;;;;;;;4934702;29;20047;-59
2021/03/26 10:23:29;;;;;;;26.38;17.85;;;;;;;;;;4936878;29;20127;-60
2021/03/26 10:26:14;;;;;;;27.00;18.08;;;;;;;;;;4936516;29;20024;-59
2021/03/26 10:28:43;;;;;;;25.90;18.10;;;;;;;;;;4936659;29;20070;-59
2021/03/26 10:31:12;;;;;;;29.08;18.33;;;;;;;;;;4936675;29;20062;-58
2021/03/26 10:33:53;;;;;;;26.25;17.08;;;;;;;;;;4936751;29;20108;-57
2021/03/26 10:36:22;;;;;;;36.22;16.20;;;;;;;;;;4936659;29;20127;-58
2021/03/26 10:38:50;;;;;;;32.03;18.92;;;;;;;;;;4936330;29;20047;-60
2021/03/26 10:41:30;;;;;;;28.52;18.05;;;;;;;;;;4936527;29;20028;-59
2021/03/26 10:44:08;;;;;;;27.40;17.27;;;;;;;;;;4936370;29;20384;-58
2021/03/26 10:46:43;;;;;;;24.50;16.50;;;;;;;;;;4936206;29;20032;-59
2021/03/26 10:49:15;;;;;;;34.28;22.25;;;;;;;;;;4936081;29;20099;-57
2021/03/26 10:52:05;;;;;;;26.05;16.33;;;;;;;;;;4935569;29;20027;-57
2021/03/26 10:54:31;;;;;;;;;;;;;;;;;;4955316;28;20038;-53
2021/03/26 10:57:01;;;;;;;31.25;19.10;;;;;;;;;;5011693;28;20262;-57
2021/03/26 10:59:39;;;;;;;34.10;21.08;;;;;;;;;;5014186;28;20065;-55
2021/03/26 11:02:20;;;;;;;81.90;49.83;;;;;;;;;;5013258;28;20022;-56
2021/03/26 11:04:53;;;;;;;29.65;18.27;;;;;;;;;;5015339;28;20033;-60
2021/03/26 11:07:22;;;;;;;83.60;47.05;;;;;;;;;;5014342;28;20056;-57
2021/03/26 11:09:51;;;;;;;33.42;19.38;;;;;;;;;;5015446;28;20025;-60
2021/03/26 11:12:22;;;;;;;38.13;23.67;;;;;;;;;;5015153;28;20034;-60
2021/03/26 11:14:57;;;;;;;46.70;25.80;;;;;;;;;;5015462;28;20057;-59
2021/03/26 11:17:34;;;;;;;57.78;33.00;;;;;;;;;;5016399;28;20030;-58
2021/03/26 11:20:21;;;;;;;83.38;49.47;;;;;;;;;;5015138;28;20038;-55
2021/03/26 11:23:08;;;;;;;41.70;26.67;;;;;;;;;;4995494;28;20085;-57
2021/03/26 11:25:39;;;;;;;36.72;20.38;;;;;;;;;;4954599;29;20043;-59
2021/03/26 11:28:20;;;;;;;50.57;29.63;;;;;;;;;;4954378;29;20516;-59
2021/03/26 11:31:04;;;;;;;107.78;55.15;;;;;;;;;;4954969;29;20273;-61
2021/03/26 11:33:39;;;;;;;32.05;19.70;;;;;;;;;;4954681;29;20515;-59
2021/03/26 11:36:25;;;;;;;43.40;23.73;;;;;;;;;;4954588;29;20037;-61
2021/03/26 11:39:06;;;;;;;47.97;26.83;;;;;;;;;;4954326;29;20039;-60
2021/03/26 11:41:35;;;;;;;53.88;32.63;;;;;;;;;;4957455;28;20026;-59
2021/03/26 11:44:02;;;;;;;79.00;47.08;;;;;;;;;;4972178;28;20089;-57
2021/03/26 11:46:35;;;;;;;63.45;37.83;;;;;;;;;;4972820;28;20022;-43
2021/03/26 11:49:04;;;;;;;117.25;68.97;;;;;;;;;;4973414;28;20155;-42
2021/03/26 11:51:33;;;;;;;48.85;30.08;;;;;;;;;;4973354;28;20037;-43
2021/03/26 11:54:02;;;;;;;37.60;23.02;;;;;;;;;;4973662;28;20034;-43
2021/03/26 11:56:37;;;;;;;34.08;19.92;;;;;;;;;;4973208;28;20053;-43
2021/03/26 11:59:09;;;;;;;85.28;52.85;;;;;;;;;;4973212;28;20052;-43
2021/03/26 12:01:42;;;;;;;42.58;24.92;;;;;;;;;;4975763;28;20034;-43
2021/03/26 12:04:11;;;;;;;34.78;22.00;;;;;;;;;;5014203;28;20088;-43
2021/03/26 12:06:45;;;;;;;74.68;41.50;;;;;;;;;;5014310;28;20037;-42
2021/03/26 12:09:21;;;;;;;46.47;26.35;;;;;;;;;;5014399;28;20106;-43
2021/03/26 12:11:53;;;;;;;67.63;38.95;;;;;;;;;;5014216;28;20061;-43
2021/03/26 12:14:32;;;;;;;81.00;41.60;;;;;;;;;;5013127;28;20036;-44
2021/03/26 12:17:02;;;;;;;37.13;19.92;;;;;;;;;;5014154;28;20030;-44
2021/03/26 12:19:29;;;;;;;28.25;16.75;;;;;;;;;;5014106;28;20069;-44
2021/03/26 12:22:14;;;;;;;31.60;18.75;;;;;;;;;;5029397;28;20024;-44
2021/03/26 12:24:52;;;;;;;54.15;30.50;;;;;;;;;;5033243;28;20395;-45
2021/03/26 12:27:39;;;;;;;64.18;37.30;;;;;;;;;;5033554;28;20084;-44
2021/03/26 12:30:20;;;;;;;47.53;26.70;;;;;;;;;;5023314;28;20494;-44
2021/03/26 12:33:07;;;;;;;33.85;18.85;;;;;;;;;;5033721;28;20105;-45
2021/03/26 12:35:42;;;;;;;23.60;14.57;;;;;;;;;;5033782;28;20029;-45
2021/03/26 12:38:14;;;;;;;37.10;22.52;;;;;;;;;;5033621;28;20025;-45
2021/03/26 12:40:40;;;;;;;40.65;22.98;;;;;;;;;;5033412;28;20029;-44
2021/03/26 12:43:17;;;;;;;25.38;15.55;;;;;;;;;;5033467;28;20110;-44
2021/03/26 12:45:45;;;;;;;24.88;16.30;;;;;;;;;;5033209;28;20032;-43
2021/03/26 12:48:16;;;;;;;20.08;14.10;;;;;;;;;;5033215;28;20496;-45
2021/03/26 12:50:47;;;;;;;30.77;19.60;;;;;;;;;;5033027;28;20140;-44
2021/03/26 12:53:18;;;;;;;37.17;22.55;;;;;;;;;;5033234;28;20033;-44
2021/03/26 12:55:44;;;;;;;27.52;15.25;;;;;;;;;;5033165;28;20029;-44
2021/03/26 12:58:19;;;;;;;29.10;16.77;;;;;;;;;;5031803;28;20056;-44
2021/03/26 13:01:02;;;;;;;29.40;16.67;;;;;;;;;;5033228;28;20044;-43
2021/03/26 13:03:36;;;;;;;29.00;17.45;;;;;;;;;;5033111;28;20389;-44
2021/03/26 13:06:05;;;;;;;36.85;21.52;;;;;;;;;;5033179;28;20021;-45
2021/03/26 13:08:34;;;;;;;40.60;22.20;;;;;;;;;;5033179;28;20485;-44
2021/03/26 13:11:16;;;;;;;35.78;20.35;;;;;;;;;;5032886;28;20040;-44
2021/03/26 13:14:01;;;;;;;27.85;16.92;;;;;;;;;;5033286;28;20041;-44
2021/03/26 13:16:27;;;;;;;29.52;17.05;;;;;;;;;;5033169;28;20035;-45
2021/03/26 13:18:55;;;;;;;30.65;15.65;;;;;;;;;;5032775;28;20022;-43
2021/03/26 13:21:24;;;;;;;22.58;14.00;;;;;;;;;;5032896;28;20037;-43
2021/03/26 13:23:59;;;;;;;22.58;14.57;;;;;;;;;;5033017;28;20057;-44
2021/03/26 13:26:26;;;;;;;27.40;15.85;;;;;;;;;;5032850;28;20389;-45
2021/03/26 13:28:57;;;;;;;34.85;20.25;;;;;;;;;;5032586;28;20044;-44
2021/03/26 13:31:31;;;;;;;24.88;15.30;;;;;;;;;;5033123;28;20043;-45
2021/03/26 13:34:03;;;;;;;26.73;15.85;;;;;;;;;;5031648;28;20088;-44
2021/03/26 13:36:32;;;;;;;32.00;16.92;;;;;;;;;;5033997;28;20025;-43
2021/03/26 13:39:04;;;;;;;28.38;16.33;;;;;;;;;;5036847;28;20103;-43
2021/03/26 13:41:36;;;;;;;26.15;16.25;;;;;;;;;;5036725;28;20520;-44
2021/03/26 13:44:14;;;;;;;26.40;15.52;;;;;;;;;;5036778;28;20033;-44
2021/03/26 13:46:42;;;;;;;36.47;19.95;;;;;;;;;;5036615;28;20029;-46
2021/03/26 13:49:13;;;;;;;24.15;15.95;;;;;;;;;;5036899;28;20030;-45
2021/03/26 13:51:43;;;;;;;24.88;14.93;;;;;;;;;;5036733;28;20029;-45
2021/03/26 13:54:18;;;;;;;26.80;15.48;;;;;;;;;;5036645;28;20037;-45
2021/03/26 13:56:49;;;;;;;31.35;14.80;;;;;;;;;;5036287;28;20579;-45
2021/03/26 13:59:19;;;;;;;26.55;15.80;;;;;;;;;;5035945;28;20083;-45
2021/03/26 14:01:48;;;;;;;27.50;15.75;;;;;;;;;;5036515;28;20030;-45
2021/03/26 14:04:17;;;;;;;26.55;16.00;;;;;;;;;;5036576;28;20104;-46
2021/03/26 14:06:46;;;;;;;24.02;14.10;;;;;;;;;;5036313;28;20025;-45
2021/03/26 14:09:15;;;;;;;24.08;14.50;;;;;;;;;;5036234;28;20030;-44
2021/03/26 14:11:43;;;;;;;25.77;15.70;;;;;;;;;;5036130;28;20100;-45
2021/03/26 14:14:09;;;;;;;26.25;15.52;;;;;;;;;;5036350;28;20096;-44
2021/03/26 14:16:38;;;;;;;29.30;16.45;;;;;;;;;;5036162;28;20037;-45
2021/03/26 14:19:09;;;;;;;28.88;16.02;;;;;;;;;;5035987;28;20099;-44
2021/03/26 14:21:35;;;;;;;27.65;15.73;;;;;;;;;;5035936;28;20465;-45
2021/03/26 14:24:10;;;;;;;25.98;16.45;;;;;;;;;;5035935;28;20477;-44
2021/03/26 14:26:46;;;;;;;28.20;14.85;;;;;;;;;;5035548;28;20052;-45
2021/03/26 14:29:12;;;;;;;34.42;16.75;;;;;;;;;;5034308;28;20056;-44
2021/03/26 14:31:51;;;;;;;31.98;17.70;;;;;;;;;;5035888;28;20078;-43
2021/03/26 14:34:22;;;;;;;44.17;20.10;;;;;;;;;;5036268;28;20056;-44
2021/03/26 14:36:53;;;;;;;30.60;18.92;;;;;;;;;;5035683;28;20512;-45
2021/03/26 14:39:23;;;;;;;53.37;32.47;;;;;;;;;;5035626;28;20026;-44
2021/03/26 14:41:57;;;;;;;36.47;22.23;;;;;;;;;;5035866;28;20254;-44
2021/03/26 14:44:27;;;;;;;52.35;31.67;;;;;;;;;;5035720;28;20026;-43
2021/03/26 14:47:01;;;;;;;36.88;22.58;;;;;;;;;;5035465;28;20033;-44
2021/03/26 14:49:37;;;;;;;41.25;19.88;;;;;;;;;;5035685;28;20497;-45
2021/03/26 14:52:06;;;;;;;30.95;18.63;;;;;;;;;;5035610;28;20026;-45
2021/03/26 14:54:34;;;;;;;41.28;22.67;;;;;;;;;;5035515;28;20029;-44
2021/03/26 14:57:03;;;;;;;33.67;19.95;;;;;;;;;;5035373;28;20037;-45